Riviera Beach, Texas
Current Conditions -  °F | °C
As of 11:56 AM on Thursday 29 Jan 2015 (Local Time) from KNQI Reporting Station
Broken Clouds Broken Clouds  
Wind Chill: 75°   Ceiling: 30000
Heat Index: 75°   Visibility: 10mi
Dew Point: 62°   Wind: 14mph
Humidity: 64%   Direction: 160°SSE
Pressure: 30.2"   Gusts: 23mph
Location:  27.3193°N, 97.8839°W
Report Text: KNQI 291756Z 16012G20KT 10SM SCT028 BKN300 24/17 A3020 RMK AO2 SLP223 T02390167 10244 20094 58004 $
Loading
Personal Weather Stations






























Interactive Weather Map New forecast layout! Learn more

10-Day Weather Forecast

Advertisements
Track Severe Weather on mobile